sensor_id;sensor_type;location;lat;lon;timestamp;temperature;humidity
18741;DHT22;9499;52.472;13.448;2022-10-31T00:01:10;13.60;99.90
18741;DHT22;9499;52.472;13.448;2022-10-31T00:03:37;13.60;99.90
18741;DHT22;9499;52.472;13.448;2022-10-31T00:06:05;13.60;99.90
18741;DHT22;9499;52.472;13.448;2022-10-31T00:08:32;13.60;99.90
18741;DHT22;9499;52.472;13.448;2022-10-31T00:10:58;13.60;99.90
18741;DHT22;9499;52.472;13.448;2022-10-31T00:13:25;13.60;99.90
18741;DHT22;9499;52.472;13.448;2022-10-31T00:15:51;13.60;99.90
18741;DHT22;9499;52.472;13.448;2022-10-31T00:18:18;13.70;99.90
18741;DHT22;9499;52.472;13.448;2022-10-31T00:20:44;13.60;99.90
18741;DHT22;9499;52.472;13.448;2022-10-31T00:23:12;13.60;99.90
18741;DHT22;9499;52.472;13.448;2022-10-31T00:25:39;13.60;99.90
18741;DHT22;9499;52.472;13.448;2022-10-31T00:28:07;13.60;99.90
18741;DHT22;9499;52.472;13.448;2022-10-31T00:30:33;13.50;99.90
18741;DHT22;9499;52.472;13.448;2022-10-31T00:33:00;13.50;99.90
18741;DHT22;9499;52.472;13.448;2022-10-31T00:35:29;13.40;99.90
18741;DHT22;9499;52.472;13.448;2022-10-31T00:37:55;13.40;99.90
18741;DHT22;9499;52.472;13.448;2022-10-31T00:40:23;13.40;99.90
18741;DHT22;9499;52.472;13.448;2022-10-31T00:42:49;13.30;99.90
18741;DHT22;9499;52.472;13.448;2022-10-31T00:45:16;13.20;99.90
18741;DHT22;9499;52.472;13.448;2022-10-31T00:47:42;13.20;99.90
18741;DHT22;9499;52.472;13.448;2022-10-31T00:50:09;13.20;99.90
18741;DHT22;9499;52.472;13.448;2022-10-31T00:52:36;13.30;99.90
18741;DHT22;9499;52.472;13.448;2022-10-31T00:55:02;13.30;99.90
18741;DHT22;9499;52.472;13.448;2022-10-31T00:57:30;13.30;99.90
18741;DHT22;9499;52.472;13.448;2022-10-31T00:59:57;13.30;99.90
18741;DHT22;9499;52.472;13.448;2022-10-31T01:02:23;13.30;99.90
18741;DHT22;9499;52.472;13.448;2022-10-31T01:04:50;13.20;99.90
18741;DHT22;9499;52.472;13.448;2022-10-31T01:07:16;13.30;99.90
18741;DHT22;9499;52.472;13.448;2022-10-31T01:09:43;13.40;99.90
18741;DHT22;9499;52.472;13.448;2022-10-31T01:12:09;13.50;99.90
18741;DHT22;9499;52.472;13.448;2022-10-31T01:14:37;13.40;99.90
18741;DHT22;9499;52.472;13.448;2022-10-31T01:17:03;13.50;99.90
18741;DHT22;9499;52.472;13.448;2022-10-31T01:19:30;13.50;99.90
18741;DHT22;9499;52.472;13.448;2022-10-31T01:21:57;13.50;99.90
18741;DHT22;9499;52.472;13.448;2022-10-31T01:24:23;13.50;99.90
18741;DHT22;9499;52.472;13.448;2022-10-31T01:26:50;13.50;99.90
18741;DHT22;9499;52.472;13.448;2022-10-31T01:29:16;13.60;99.90
18741;DHT22;9499;52.472;13.448;2022-10-31T01:31:44;13.60;99.90
18741;DHT22;9499;52.472;13.448;2022-10-31T01:34:13;13.60;99.90
18741;DHT22;9499;52.472;13.448;2022-10-31T01:36:41;13.60;99.90
18741;DHT22;9499;52.472;13.448;2022-10-31T01:39:10;13.60;99.90
18741;DHT22;9499;52.472;13.448;2022-10-31T01:41:40;13.60;99.90
18741;DHT22;9499;52.472;13.448;2022-10-31T01:47:12;13.50;99.90
18741;DHT22;9499;52.472;13.448;2022-10-31T01:49:43;13.50;99.90
18741;DHT22;9499;52.472;13.448;2022-10-31T01:52:14;13.50;99.90
18741;DHT22;9499;52.472;13.448;2022-10-31T01:54:45;13.50;99.90
18741;DHT22;9499;52.472;13.448;2022-10-31T01:57:14;13.50;99.90
18741;DHT22;9499;52.472;13.448;2022-10-31T01:59:44;13.50;99.90
18741;DHT22;9499;52.472;13.448;2022-10-31T02:02:15;13.40;99.90
18741;DHT22;9499;52.472;13.448;2022-10-31T02:04:42;13.40;99.90
18741;DHT22;9499;52.472;13.448;2022-10-31T02:07:13;13.40;99.90
18741;DHT22;9499;52.472;13.448;2022-10-31T02:09:40;13.40;99.90
18741;DHT22;9499;52.472;13.448;2022-10-31T02:12:10;13.40;99.90
18741;DHT22;9499;52.472;13.448;2022-10-31T02:14:37;13.40;99.90
18741;DHT22;9499;52.472;13.448;2022-10-31T02:17:04;13.40;99.90
18741;DHT22;9499;52.472;13.448;2022-10-31T02:19:38;13.40;99.90
18741;DHT22;9499;52.472;13.448;2022-10-31T02:22:11;13.40;99.90
18741;DHT22;9499;52.472;13.448;2022-10-31T02:24:45;13.40;99.90
18741;DHT22;9499;52.472;13.448;2022-10-31T02:27:32;13.50;99.90
18741;DHT22;9499;52.472;13.448;2022-10-31T02:30:09;13.50;99.90
18741;DHT22;9499;52.472;13.448;2022-10-31T02:32:46;13.50;99.90
18741;DHT22;9499;52.472;13.448;2022-10-31T02:38:14;13.50;99.90
18741;DHT22;9499;52.472;13.448;2022-10-31T02:40:50;13.50;99.90
18741;DHT22;9499;52.472;13.448;2022-10-31T02:43:22;13.50;99.90
18741;DHT22;9499;52.472;13.448;2022-10-31T02:45:58;13.50;99.90
18741;DHT22;9499;52.472;13.448;2022-10-31T02:48:28;13.50;99.90
18741;DHT22;9499;52.472;13.448;2022-10-31T02:50:58;13.50;99.90
18741;DHT22;9499;52.472;13.448;2022-10-31T02:53:26;13.50;99.90
18741;DHT22;9499;52.472;13.448;2022-10-31T02:55:58;13.50;99.90
18741;DHT22;9499;52.472;13.448;2022-10-31T02:58:27;13.40;99.90
18741;DHT22;9499;52.472;13.448;2022-10-31T03:01:17;13.40;99.90
18741;DHT22;9499;52.472;13.448;2022-10-31T03:03:57;13.30;99.90
18741;DHT22;9499;52.472;13.448;2022-10-31T03:06:32;13.30;99.90
18741;DHT22;9499;52.472;13.448;2022-10-31T03:09:03;13.20;99.90
18741;DHT22;9499;52.472;13.448;2022-10-31T03:11:38;13.30;99.90
18741;DHT22;9499;52.472;13.448;2022-10-31T03:14:12;13.20;99.90
18741;DHT22;9499;52.472;13.448;2022-10-31T03:16:45;13.20;99.90
18741;DHT22;9499;52.472;13.448;2022-10-31T03:19:16;13.30;99.90
18741;DHT22;9499;52.472;13.448;2022-10-31T03:21:45;13.20;99.90
18741;DHT22;9499;52.472;13.448;2022-10-31T03:24:14;13.20;99.90
18741;DHT22;9499;52.472;13.448;2022-10-31T03:26:42;13.20;99.90
18741;DHT22;9499;52.472;13.448;2022-10-31T03:29:13;13.10;99.90
18741;DHT22;9499;52.472;13.448;2022-10-31T03:31:46;13.10;99.90
18741;DHT22;9499;52.472;13.448;2022-10-31T03:34:16;13.20;99.90
18741;DHT22;9499;52.472;13.448;2022-10-31T03:36:44;13.10;99.90
18741;DHT22;9499;52.472;13.448;2022-10-31T03:39:13;13.10;99.90
18741;DHT22;9499;52.472;13.448;2022-10-31T03:41:43;13.10;99.90
18741;DHT22;9499;52.472;13.448;2022-10-31T03:44:15;13.00;99.90
18741;DHT22;9499;52.472;13.448;2022-10-31T03:46:43;13.00;99.90
18741;DHT22;9499;52.472;13.448;2022-10-31T03:49:10;13.00;99.90
18741;DHT22;9499;52.472;13.448;2022-10-31T03:51:44;13.00;99.90
18741;DHT22;9499;52.472;13.448;2022-10-31T03:54:15;13.00;99.90
18741;DHT22;9499;52.472;13.448;2022-10-31T03:56:50;13.00;99.90
18741;DHT22;9499;52.472;13.448;2022-10-31T03:59:23;13.00;99.90
18741;DHT22;9499;52.472;13.448;2022-10-31T04:01:53;13.00;99.90
18741;DHT22;9499;52.472;13.448;2022-10-31T04:04:22;13.00;99.90
18741;DHT22;9499;52.472;13.448;2022-10-31T04:06:50;13.00;99.90
18741;DHT22;9499;52.472;13.448;2022-10-31T04:09:19;13.00;99.90
18741;DHT22;9499;52.472;13.448;2022-10-31T04:11:53;13.00;99.90
18741;DHT22;9499;52.472;13.448;2022-10-31T04:14:21;13.00;99.90
18741;DHT22;9499;52.472;13.448;2022-10-31T04:16:48;13.00;99.90
18741;DHT22;9499;52.472;13.448;2022-10-31T04:19:15;13.10;99.90
18741;DHT22;9499;52.472;13.448;2022-10-31T04:21:41;13.10;99.90
18741;DHT22;9499;52.472;13.448;2022-10-31T04:24:10;13.20;99.90
18741;DHT22;9499;52.472;13.448;2022-10-31T04:26:36;13.10;99.90
18741;DHT22;9499;52.472;13.448;2022-10-31T04:29:03;13.20;99.90
18741;DHT22;9499;52.472;13.448;2022-10-31T04:31:29;13.10;99.90
18741;DHT22;9499;52.472;13.448;2022-10-31T04:33:56;13.10;99.90
18741;DHT22;9499;52.472;13.448;2022-10-31T04:36:22;13.10;99.90
18741;DHT22;9499;52.472;13.448;2022-10-31T04:38:49;13.10;99.90
18741;DHT22;9499;52.472;13.448;2022-10-31T04:41:17;13.10;99.90
18741;DHT22;9499;52.472;13.448;2022-10-31T04:43:43;13.10;99.90
18741;DHT22;9499;52.472;13.448;2022-10-31T04:46:09;13.10;99.90
18741;DHT22;9499;52.472;13.448;2022-10-31T04:48:36;13.10;99.90
18741;DHT22;9499;52.472;13.448;2022-10-31T04:51:03;13.00;99.90
18741;DHT22;9499;52.472;13.448;2022-10-31T04:53:29;13.00;99.90
18741;DHT22;9499;52.472;13.448;2022-10-31T04:55:58;13.00;99.90
18741;DHT22;9499;52.472;13.448;2022-10-31T04:58:26;13.00;99.90
18741;DHT22;9499;52.472;13.448;2022-10-31T05:00:53;13.00;99.90
18741;DHT22;9499;52.472;13.448;2022-10-31T05:03:19;13.00;99.90
18741;DHT22;9499;52.472;13.448;2022-10-31T05:05:46;13.00;99.90
18741;DHT22;9499;52.472;13.448;2022-10-31T05:08:13;13.00;99.90
18741;DHT22;9499;52.472;13.448;2022-10-31T05:10:40;13.00;99.90
18741;DHT22;9499;52.472;13.448;2022-10-31T05:13:06;13.00;99.90
18741;DHT22;9499;52.472;13.448;2022-10-31T05:15:34;13.00;99.90
18741;DHT22;9499;52.472;13.448;2022-10-31T05:18:01;13.00;99.90
18741;DHT22;9499;52.472;13.448;2022-10-31T05:20:29;13.00;99.90
18741;DHT22;9499;52.472;13.448;2022-10-31T05:22:57;13.00;99.90
18741;DHT22;9499;52.472;13.448;2022-10-31T05:25:26;13.00;99.90
18741;DHT22;9499;52.472;13.448;2022-10-31T05:27:54;13.00;99.90
18741;DHT22;9499;52.472;13.448;2022-10-31T05:30:22;12.90;99.90
18741;DHT22;9499;52.472;13.448;2022-10-31T05:32:51;13.00;99.90
18741;DHT22;9499;52.472;13.448;2022-10-31T05:35:19;12.90;99.90
18741;DHT22;9499;52.472;13.448;2022-10-31T05:37:46;13.00;99.90
18741;DHT22;9499;52.472;13.448;2022-10-31T05:40:14;13.00;99.90
18741;DHT22;9499;52.472;13.448;2022-10-31T05:42:43;13.00;99.90
18741;DHT22;9499;52.472;13.448;2022-10-31T05:45:10;12.90;99.90
18741;DHT22;9499;52.472;13.448;2022-10-31T05:47:37;12.90;99.90
18741;DHT22;9499;52.472;13.448;2022-10-31T05:50:06;12.90;99.90
18741;DHT22;9499;52.472;13.448;2022-10-31T05:52:33;13.00;99.90
18741;DHT22;9499;52.472;13.448;2022-10-31T05:54:59;13.00;99.90
18741;DHT22;9499;52.472;13.448;2022-10-31T05:57:26;13.00;99.90
18741;DHT22;9499;52.472;13.448;2022-10-31T05:59:54;12.90;99.90
18741;DHT22;9499;52.472;13.448;2022-10-31T06:02:20;13.00;99.90
18741;DHT22;9499;52.472;13.448;2022-10-31T06:04:47;13.00;99.90
18741;DHT22;9499;52.472;13.448;2022-10-31T06:07:15;12.90;99.90
18741;DHT22;9499;52.472;13.448;2022-10-31T06:09:41;12.90;99.90
18741;DHT22;9499;52.472;13.448;2022-10-31T06:12:08;12.90;99.90
18741;DHT22;9499;52.472;13.448;2022-10-31T06:14:34;12.80;99.90
18741;DHT22;9499;52.472;13.448;2022-10-31T06:17:01;12.80;99.90
18741;DHT22;9499;52.472;13.448;2022-10-31T06:19:27;12.70;99.90
18741;DHT22;9499;52.472;13.448;2022-10-31T06:21:54;12.80;99.90
18741;DHT22;9499;52.472;13.448;2022-10-31T06:24:22;12.70;99.90
18741;DHT22;9499;52.472;13.448;2022-10-31T06:26:48;12.80;99.90
18741;DHT22;9499;52.472;13.448;2022-10-31T06:29:15;12.80;99.90
18741;DHT22;9499;52.472;13.448;2022-10-31T06:31:41;12.90;99.90
18741;DHT22;9499;52.472;13.448;2022-10-31T06:34:08;12.90;99.90
18741;DHT22;9499;52.472;13.448;2022-10-31T06:36:34;12.90;99.90
18741;DHT22;9499;52.472;13.448;2022-10-31T06:39:01;13.00;99.90
18741;DHT22;9499;52.472;13.448;2022-10-31T06:41:28;13.00;99.90
18741;DHT22;9499;52.472;13.448;2022-10-31T06:43:55;13.00;99.90
18741;DHT22;9499;52.472;13.448;2022-10-31T06:46:21;13.00;99.90
18741;DHT22;9499;52.472;13.448;2022-10-31T06:48:48;13.00;99.90
18741;DHT22;9499;52.472;13.448;2022-10-31T06:51:14;13.00;99.90
18741;DHT22;9499;52.472;13.448;2022-10-31T06:53:41;13.00;99.90
18741;DHT22;9499;52.472;13.448;2022-10-31T06:56:07;13.00;99.90
18741;DHT22;9499;52.472;13.448;2022-10-31T06:58:35;13.00;99.90
18741;DHT22;9499;52.472;13.448;2022-10-31T07:01:02;13.00;99.90
18741;DHT22;9499;52.472;13.448;2022-10-31T07:03:28;13.00;99.90
18741;DHT22;9499;52.472;13.448;2022-10-31T07:05:55;13.10;99.90
18741;DHT22;9499;52.472;13.448;2022-10-31T07:08:22;13.00;99.90
18741;DHT22;9499;52.472;13.448;2022-10-31T07:10:51;13.10;99.90
18741;DHT22;9499;52.472;13.448;2022-10-31T07:13:18;13.20;99.90
18741;DHT22;9499;52.472;13.448;2022-10-31T07:15:48;13.20;99.90
18741;DHT22;9499;52.472;13.448;2022-10-31T07:18:14;13.20;99.90
18741;DHT22;9499;52.472;13.448;2022-10-31T07:20:41;13.20;99.90
18741;DHT22;9499;52.472;13.448;2022-10-31T07:23:08;13.20;99.90
18741;DHT22;9499;52.472;13.448;2022-10-31T07:25:35;13.30;99.90
18741;DHT22;9499;52.472;13.448;2022-10-31T07:28:01;13.30;99.90
18741;DHT22;9499;52.472;13.448;2022-10-31T07:30:28;13.40;99.90
18741;DHT22;9499;52.472;13.448;2022-10-31T07:32:56;13.50;99.90
18741;DHT22;9499;52.472;13.448;2022-10-31T07:35:24;13.60;99.90
18741;DHT22;9499;52.472;13.448;2022-10-31T07:37:51;13.60;99.90
18741;DHT22;9499;52.472;13.448;2022-10-31T07:40:18;13.70;99.90
18741;DHT22;9499;52.472;13.448;2022-10-31T07:42:46;13.80;99.90
18741;DHT22;9499;52.472;13.448;2022-10-31T07:45:14;13.90;99.90
18741;DHT22;9499;52.472;13.448;2022-10-31T07:47:41;14.00;99.90
18741;DHT22;9499;52.472;13.448;2022-10-31T07:50:15;14.10;99.90
18741;DHT22;9499;52.472;13.448;2022-10-31T07:52:42;14.20;99.90
18741;DHT22;9499;52.472;13.448;2022-10-31T07:55:08;14.30;99.90
18741;DHT22;9499;52.472;13.448;2022-10-31T07:57:36;14.40;99.90
18741;DHT22;9499;52.472;13.448;2022-10-31T08:00:03;14.40;99.90
18741;DHT22;9499;52.472;13.448;2022-10-31T08:02:29;14.50;99.90
18741;DHT22;9499;52.472;13.448;2022-10-31T08:04:56;14.60;99.90
18741;DHT22;9499;52.472;13.448;2022-10-31T08:07:24;14.70;99.90
18741;DHT22;9499;52.472;13.448;2022-10-31T08:09:50;14.80;99.90
18741;DHT22;9499;52.472;13.448;2022-10-31T08:12:17;14.90;99.90
18741;DHT22;9499;52.472;13.448;2022-10-31T08:14:43;14.90;99.90
18741;DHT22;9499;52.472;13.448;2022-10-31T08:17:10;14.90;99.90
18741;DHT22;9499;52.472;13.448;2022-10-31T08:19:37;14.90;99.90
18741;DHT22;9499;52.472;13.448;2022-10-31T08:22:03;15.00;99.90
18741;DHT22;9499;52.472;13.448;2022-10-31T08:24:31;14.90;99.90
18741;DHT22;9499;52.472;13.448;2022-10-31T08:26:58;14.90;99.90
18741;DHT22;9499;52.472;13.448;2022-10-31T08:29:28;14.90;99.90
18741;DHT22;9499;52.472;13.448;2022-10-31T08:31:57;14.80;99.90
18741;DHT22;9499;52.472;13.448;2022-10-31T08:34:24;14.90;99.90
18741;DHT22;9499;52.472;13.448;2022-10-31T08:36:51;14.90;99.90
18741;DHT22;9499;52.472;13.448;2022-10-31T08:39:18;14.90;99.90
18741;DHT22;9499;52.472;13.448;2022-10-31T08:41:47;14.90;99.90
18741;DHT22;9499;52.472;13.448;2022-10-31T08:44:13;14.90;99.90
18741;DHT22;9499;52.472;13.448;2022-10-31T08:46:40;14.90;99.90
18741;DHT22;9499;52.472;13.448;2022-10-31T08:49:08;14.90;99.90
18741;DHT22;9499;52.472;13.448;2022-10-31T08:51:34;14.90;99.90
18741;DHT22;9499;52.472;13.448;2022-10-31T08:54:02;15.00;99.90
18741;DHT22;9499;52.472;13.448;2022-10-31T08:56:29;15.10;99.90
18741;DHT22;9499;52.472;13.448;2022-10-31T08:58:58;15.10;99.90
18741;DHT22;9499;52.472;13.448;2022-10-31T09:01:24;15.20;99.90
18741;DHT22;9499;52.472;13.448;2022-10-31T09:03:51;15.20;99.90
18741;DHT22;9499;52.472;13.448;2022-10-31T09:06:17;15.30;99.90
18741;DHT22;9499;52.472;13.448;2022-10-31T09:08:44;15.30;99.90
18741;DHT22;9499;52.472;13.448;2022-10-31T09:11:10;15.30;99.90
18741;DHT22;9499;52.472;13.448;2022-10-31T09:13:37;15.30;99.90
18741;DHT22;9499;52.472;13.448;2022-10-31T09:16:05;15.40;99.90
18741;DHT22;9499;52.472;13.448;2022-10-31T09:18:32;15.50;99.90
18741;DHT22;9499;52.472;13.448;2022-10-31T09:21:00;15.50;99.90
18741;DHT22;9499;52.472;13.448;2022-10-31T09:23:26;15.60;99.90
18741;DHT22;9499;52.472;13.448;2022-10-31T09:25:53;15.60;99.90
18741;DHT22;9499;52.472;13.448;2022-10-31T09:28:21;15.60;99.90
18741;DHT22;9499;52.472;13.448;2022-10-31T09:30:49;15.60;99.90
18741;DHT22;9499;52.472;13.448;2022-10-31T09:33:17;15.80;99.90
18741;DHT22;9499;52.472;13.448;2022-10-31T09:35:44;16.10;99.90
18741;DHT22;9499;52.472;13.448;2022-10-31T09:38:13;16.20;99.90
18741;DHT22;9499;52.472;13.448;2022-10-31T09:40:43;16.50;99.90
18741;DHT22;9499;52.472;13.448;2022-10-31T09:43:15;16.80;99.90
18741;DHT22;9499;52.472;13.448;2022-10-31T09:45:53;17.10;99.90
18741;DHT22;9499;52.472;13.448;2022-10-31T09:48:31;17.30;99.90
18741;DHT22;9499;52.472;13.448;2022-10-31T09:51:05;17.50;99.90
18741;DHT22;9499;52.472;13.448;2022-10-31T09:53:35;17.60;99.90
18741;DHT22;9499;52.472;13.448;2022-10-31T09:56:07;17.80;99.90
18741;DHT22;9499;52.472;13.448;2022-10-31T09:58:41;17.80;99.90
18741;DHT22;9499;52.472;13.448;2022-10-31T10:01:17;17.60;99.90
18741;DHT22;9499;52.472;13.448;2022-10-31T10:03:50;17.20;99.90
18741;DHT22;9499;52.472;13.448;2022-10-31T10:06:21;16.90;99.90
18741;DHT22;9499;52.472;13.448;2022-10-31T10:08:49;16.70;99.90
18741;DHT22;9499;52.472;13.448;2022-10-31T10:11:29;16.40;99.90
18741;DHT22;9499;52.472;13.448;2022-10-31T10:14:07;16.30;99.90
18741;DHT22;9499;52.472;13.448;2022-10-31T10:16:49;16.40;99.90
18741;DHT22;9499;52.472;13.448;2022-10-31T10:19:33;16.50;99.90
18741;DHT22;9499;52.472;13.448;2022-10-31T10:22:08;16.70;99.90
18741;DHT22;9499;52.472;13.448;2022-10-31T10:24:51;16.80;99.90
18741;DHT22;9499;52.472;13.448;2022-10-31T10:27:23;16.80;99.90
18741;DHT22;9499;52.472;13.448;2022-10-31T10:30:03;16.90;99.90
18741;DHT22;9499;52.472;13.448;2022-10-31T10:32:37;17.00;99.90
18741;DHT22;9499;52.472;13.448;2022-10-31T10:35:17;17.00;99.90
18741;DHT22;9499;52.472;13.448;2022-10-31T10:37:46;16.90;99.90
18741;DHT22;9499;52.472;13.448;2022-10-31T10:40:17;16.90;99.90
18741;DHT22;9499;52.472;13.448;2022-10-31T10:42:45;16.80;99.90
18741;DHT22;9499;52.472;13.448;2022-10-31T10:45:34;16.80;99.90
18741;DHT22;9499;52.472;13.448;2022-10-31T10:48:26;16.90;99.90
18741;DHT22;9499;52.472;13.448;2022-10-31T10:50:54;17.10;99.90
18741;DHT22;9499;52.472;13.448;2022-10-31T10:53:30;17.20;99.90
18741;DHT22;9499;52.472;13.448;2022-10-31T10:56:11;17.60;99.90
18741;DHT22;9499;52.472;13.448;2022-10-31T10:58:42;17.70;99.90
18741;DHT22;9499;52.472;13.448;2022-10-31T11:01:11;17.90;99.90
18741;DHT22;9499;52.472;13.448;2022-10-31T11:03:39;18.00;99.90
18741;DHT22;9499;52.472;13.448;2022-10-31T11:06:16;18.30;99.90
18741;DHT22;9499;52.472;13.448;2022-10-31T11:08:46;18.30;99.90
18741;DHT22;9499;52.472;13.448;2022-10-31T11:11:22;18.40;99.90
18741;DHT22;9499;52.472;13.448;2022-10-31T11:13:53;18.50;99.90
18741;DHT22;9499;52.472;13.448;2022-10-31T11:16:28;18.70;99.90
18741;DHT22;9499;52.472;13.448;2022-10-31T11:19:06;19.00;99.90
18741;DHT22;9499;52.472;13.448;2022-10-31T11:21:35;19.30;99.90
18741;DHT22;9499;52.472;13.448;2022-10-31T11:24:02;19.50;99.90
18741;DHT22;9499;52.472;13.448;2022-10-31T11:26:29;19.50;99.90
18741;DHT22;9499;52.472;13.448;2022-10-31T11:28:57;19.50;99.90
18741;DHT22;9499;52.472;13.448;2022-10-31T11:31:24;19.50;99.90
18741;DHT22;9499;52.472;13.448;2022-10-31T11:33:57;19.50;99.90
18741;DHT22;9499;52.472;13.448;2022-10-31T11:36:27;19.30;99.90
18741;DHT22;9499;52.472;13.448;2022-10-31T11:38:57;19.30;99.90
18741;DHT22;9499;52.472;13.448;2022-10-31T11:41:27;19.20;99.90
18741;DHT22;9499;52.472;13.448;2022-10-31T11:43:56;19.20;99.90
18741;DHT22;9499;52.472;13.448;2022-10-31T11:46:27;19.30;99.90
18741;DHT22;9499;52.472;13.448;2022-10-31T11:48:56;19.50;99.90
18741;DHT22;9499;52.472;13.448;2022-10-31T11:51:25;19.70;99.90
18741;DHT22;9499;52.472;13.448;2022-10-31T11:53:54;19.80;99.90
18741;DHT22;9499;52.472;13.448;2022-10-31T11:56:23;19.90;99.90
18741;DHT22;9499;52.472;13.448;2022-10-31T11:59:03;20.20;99.90
18741;DHT22;9499;52.472;13.448;2022-10-31T12:01:30;20.30;99.90
18741;DHT22;9499;52.472;13.448;2022-10-31T12:04:04;20.40;99.90
18741;DHT22;9499;52.472;13.448;2022-10-31T12:06:34;20.60;99.90
18741;DHT22;9499;52.472;13.448;2022-10-31T12:09:01;20.70;99.90
18741;DHT22;9499;52.472;13.448;2022-10-31T12:11:45;20.90;99.90
18741;DHT22;9499;52.472;13.448;2022-10-31T12:14:20;21.00;99.90
18741;DHT22;9499;52.472;13.448;2022-10-31T12:16:57;21.10;99.90
18741;DHT22;9499;52.472;13.448;2022-10-31T12:19:34;21.30;99.90
18741;DHT22;9499;52.472;13.448;2022-10-31T12:22:08;21.50;99.90
18741;DHT22;9499;52.472;13.448;2022-10-31T12:24:53;21.60;99.90
18741;DHT22;9499;52.472;13.448;2022-10-31T12:27:32;21.70;99.90
18741;DHT22;9499;52.472;13.448;2022-10-31T12:30:15;21.60;99.90
18741;DHT22;9499;52.472;13.448;2022-10-31T12:32:58;21.60;99.90
18741;DHT22;9499;52.472;13.448;2022-10-31T12:35:35;21.80;99.90
18741;DHT22;9499;52.472;13.448;2022-10-31T12:38:18;21.90;99.90
18741;DHT22;9499;52.472;13.448;2022-10-31T12:40:58;21.80;99.90
18741;DHT22;9499;52.472;13.448;2022-10-31T12:43:36;21.90;99.90
18741;DHT22;9499;52.472;13.448;2022-10-31T12:46:09;22.00;99.90
18741;DHT22;9499;52.472;13.448;2022-10-31T12:48:53;22.00;99.90
18741;DHT22;9499;52.472;13.448;2022-10-31T12:51:28;22.00;99.90
18741;DHT22;9499;52.472;13.448;2022-10-31T12:54:09;22.10;99.90
18741;DHT22;9499;52.472;13.448;2022-10-31T12:56:47;22.00;99.90
18741;DHT22;9499;52.472;13.448;2022-10-31T12:59:22;22.10;99.90
18741;DHT22;9499;52.472;13.448;2022-10-31T13:01:55;22.10;99.90
18741;DHT22;9499;52.472;13.448;2022-10-31T13:04:35;22.30;99.90
18741;DHT22;9499;52.472;13.448;2022-10-31T13:07:05;22.20;99.90
18741;DHT22;9499;52.472;13.448;2022-10-31T13:09:37;22.10;99.90
18741;DHT22;9499;52.472;13.448;2022-10-31T13:12:10;22.20;99.90
18741;DHT22;9499;52.472;13.448;2022-10-31T13:14:41;22.20;99.90
18741;DHT22;9499;52.472;13.448;2022-10-31T13:17:14;22.20;99.90
18741;DHT22;9499;52.472;13.448;2022-10-31T13:19:43;22.10;99.90
18741;DHT22;9499;52.472;13.448;2022-10-31T13:22:14;22.00;99.90
18741;DHT22;9499;52.472;13.448;2022-10-31T13:24:46;21.90;99.90
18741;DHT22;9499;52.472;13.448;2022-10-31T13:27:21;21.90;99.90
18741;DHT22;9499;52.472;13.448;2022-10-31T13:29:58;21.70;99.90
18741;DHT22;9499;52.472;13.448;2022-10-31T13:32:26;21.50;99.90
18741;DHT22;9499;52.472;13.448;2022-10-31T13:34:55;21.40;99.90
18741;DHT22;9499;52.472;13.448;2022-10-31T13:40:19;21.20;99.90
18741;DHT22;9499;52.472;13.448;2022-10-31T13:42:55;21.20;99.90
18741;DHT22;9499;52.472;13.448;2022-10-31T13:45:26;21.00;99.90
18741;DHT22;9499;52.472;13.448;2022-10-31T13:48:00;20.90;99.90
18741;DHT22;9499;52.472;13.448;2022-10-31T13:50:29;20.80;99.90
18741;DHT22;9499;52.472;13.448;2022-10-31T13:53:13;20.80;99.90
18741;DHT22;9499;52.472;13.448;2022-10-31T13:55:42;20.70;99.90
18741;DHT22;9499;52.472;13.448;2022-10-31T13:58:24;20.70;99.90
18741;DHT22;9499;52.472;13.448;2022-10-31T14:01:12;20.70;99.90
18741;DHT22;9499;52.472;13.448;2022-10-31T14:03:40;20.60;99.90
18741;DHT22;9499;52.472;13.448;2022-10-31T14:06:09;20.60;99.90
18741;DHT22;9499;52.472;13.448;2022-10-31T14:08:40;20.50;99.90
18741;DHT22;9499;52.472;13.448;2022-10-31T14:11:09;20.50;99.90
18741;DHT22;9499;52.472;13.448;2022-10-31T14:13:44;20.40;99.90
18741;DHT22;9499;52.472;13.448;2022-10-31T14:16:20;20.40;99.90
18741;DHT22;9499;52.472;13.448;2022-10-31T14:18:50;20.30;99.90
18741;DHT22;9499;52.472;13.448;2022-10-31T14:21:27;20.20;99.90
18741;DHT22;9499;52.472;13.448;2022-10-31T14:23:56;20.10;99.90
18741;DHT22;9499;52.472;13.448;2022-10-31T14:26:34;20.00;99.90
18741;DHT22;9499;52.472;13.448;2022-10-31T14:29:21;20.00;99.90
18741;DHT22;9499;52.472;13.448;2022-10-31T14:31:54;19.90;99.90
18741;DHT22;9499;52.472;13.448;2022-10-31T14:34:24;19.90;99.90
18741;DHT22;9499;52.472;13.448;2022-10-31T14:37:22;19.80;99.90
18741;DHT22;9499;52.472;13.448;2022-10-31T14:40:02;19.80;99.90
18741;DHT22;9499;52.472;13.448;2022-10-31T14:42:40;19.70;99.90
18741;DHT22;9499;52.472;13.448;2022-10-31T14:45:18;19.70;99.90
18741;DHT22;9499;52.472;13.448;2022-10-31T14:48:03;19.60;99.90
18741;DHT22;9499;52.472;13.448;2022-10-31T14:50:41;19.50;99.90
18741;DHT22;9499;52.472;13.448;2022-10-31T14:53:14;19.50;99.90
18741;DHT22;9499;52.472;13.448;2022-10-31T14:55:48;19.40;99.90
18741;DHT22;9499;52.472;13.448;2022-10-31T14:58:19;19.40;99.90
18741;DHT22;9499;52.472;13.448;2022-10-31T15:00:50;19.30;99.90
18741;DHT22;9499;52.472;13.448;2022-10-31T15:03:23;19.10;9.80
18741;DHT22;9499;52.472;13.448;2022-10-31T15:05:52;19.10;14.20
18741;DHT22;9499;52.472;13.448;2022-10-31T15:08:33;19.00;17.70
18741;DHT22;9499;52.472;13.448;2022-10-31T15:11:03;18.80;27.80
18741;DHT22;9499;52.472;13.448;2022-10-31T15:13:41;18.60;39.60
18741;DHT22;9499;52.472;13.448;2022-10-31T15:16:08;18.50;50.90
18741;DHT22;9499;52.472;13.448;2022-10-31T15:18:46;18.40;54.20
18741;DHT22;9499;52.472;13.448;2022-10-31T15:21:14;18.30;58.50
18741;DHT22;9499;52.472;13.448;2022-10-31T15:23:42;18.20;69.30
18741;DHT22;9499;52.472;13.448;2022-10-31T15:26:15;18.10;77.00
18741;DHT22;9499;52.472;13.448;2022-10-31T15:28:42;18.00;89.20
18741;DHT22;9499;52.472;13.448;2022-10-31T15:31:15;17.80;93.40
18741;DHT22;9499;52.472;13.448;2022-10-31T15:33:48;17.70;97.60
18741;DHT22;9499;52.472;13.448;2022-10-31T15:36:20;17.70;98.90
18741;DHT22;9499;52.472;13.448;2022-10-31T15:38:47;17.60;99.90
18741;DHT22;9499;52.472;13.448;2022-10-31T15:41:26;17.50;99.90
18741;DHT22;9499;52.472;13.448;2022-10-31T15:43:55;17.50;99.90
18741;DHT22;9499;52.472;13.448;2022-10-31T15:46:25;17.50;99.90
18741;DHT22;9499;52.472;13.448;2022-10-31T15:48:54;17.40;99.90
18741;DHT22;9499;52.472;13.448;2022-10-31T15:51:26;17.40;99.90
18741;DHT22;9499;52.472;13.448;2022-10-31T15:53:54;17.30;99.90
18741;DHT22;9499;52.472;13.448;2022-10-31T15:56:22;17.20;99.90
18741;DHT22;9499;52.472;13.448;2022-10-31T15:58:51;17.20;99.90